createdAt,value
2019-03-01T00:00:14.429Z,4.60
2019-03-01T00:02:43.337Z,3.67
2019-03-01T00:05:46.406Z,3.77
2019-03-01T00:08:20.546Z,4.90
2019-03-01T00:11:32.248Z,4.40
2019-03-01T00:14:38.251Z,4.43
2019-03-01T00:17:56.472Z,4.60
2019-03-01T00:21:04.917Z,4.23
2019-03-01T00:23:51.956Z,4.60
2019-03-01T00:26:51.260Z,5.40
2019-03-01T00:29:41.349Z,5.63
2019-03-01T00:32:36.053Z,4.97
2019-03-01T00:35:45.025Z,4.67
2019-03-01T00:38:38.328Z,5.47
2019-03-01T00:42:00.284Z,5.10
2019-03-01T00:44:44.240Z,8.63
2019-03-01T00:47:13.403Z,4.97
2019-03-01T00:49:42.397Z,5.60
2019-03-01T00:52:11.887Z,5.60
2019-03-01T00:54:40.925Z,5.33
2019-03-01T00:57:09.971Z,4.77
2019-03-01T00:59:39.258Z,5.60
2019-03-01T01:02:08.365Z,4.10
2019-03-01T01:04:37.383Z,5.10
2019-03-01T01:07:06.396Z,5.33
2019-03-01T01:09:35.585Z,4.50
2019-03-01T01:12:05.167Z,4.00
2019-03-01T01:14:34.219Z,3.70
2019-03-01T01:17:03.364Z,4.50
2019-03-01T01:19:32.489Z,4.03
2019-03-01T01:22:01.828Z,3.37
2019-03-01T01:24:31.026Z,4.40
2019-03-01T01:27:00.062Z,3.70
2019-03-01T01:29:30.072Z,3.90
2019-03-01T01:31:59.038Z,4.77
2019-03-01T01:34:28.065Z,4.60
2019-03-01T01:36:57.757Z,3.53
2019-03-01T01:39:26.743Z,4.30
2019-03-01T01:41:55.804Z,4.00
2019-03-01T01:44:24.809Z,5.33
2019-03-01T01:46:53.953Z,3.50
2019-03-01T01:49:22.928Z,4.40
2019-03-01T01:51:51.892Z,3.67
2019-03-01T01:54:20.859Z,4.30
2019-03-01T01:56:49.861Z,4.27
2019-03-01T01:59:18.829Z,4.00
2019-03-01T02:01:47.837Z,3.10
2019-03-01T02:04:16.835Z,3.50
2019-03-01T02:06:45.805Z,4.50
2019-03-01T02:09:25.269Z,4.00
2019-03-01T02:11:54.178Z,4.13
2019-03-01T02:14:23.235Z,3.57
2019-03-01T02:16:52.314Z,3.63
2019-03-01T02:19:21.384Z,3.80
2019-03-01T02:21:50.362Z,3.43
2019-03-01T02:24:19.420Z,4.30
2019-03-01T02:26:48.505Z,3.90
2019-03-01T02:29:17.436Z,4.00
2019-03-01T02:31:59.462Z,4.40
2019-03-01T02:34:28.423Z,3.83
2019-03-01T02:36:57.517Z,3.80
2019-03-01T02:39:26.523Z,3.50
2019-03-01T02:41:55.815Z,3.60
2019-03-01T02:44:24.897Z,4.23
2019-03-01T02:46:53.833Z,3.83
2019-03-01T02:49:22.890Z,4.23
2019-03-01T02:51:51.930Z,3.33
2019-03-01T02:54:20.949Z,4.23
2019-03-01T02:56:49.811Z,4.20
2019-03-01T02:59:18.895Z,4.87
2019-03-01T03:01:47.869Z,3.90
2019-03-01T03:04:23.680Z,4.30
2019-03-01T03:07:08.597Z,4.17
2019-03-01T03:09:37.452Z,4.20
2019-03-01T03:12:06.419Z,5.00
2019-03-01T03:14:35.401Z,4.23
2019-03-01T03:17:05.233Z,5.30
2019-03-01T03:19:34.231Z,4.20
2019-03-01T03:22:03.395Z,4.90
2019-03-01T03:24:32.849Z,5.17
2019-03-01T03:27:02.197Z,4.23
2019-03-01T03:29:31.446Z,6.07
2019-03-01T03:32:00.443Z,4.40
2019-03-01T03:34:29.594Z,5.63
2019-03-01T03:36:58.483Z,5.20
2019-03-01T03:39:27.424Z,5.50
2019-03-01T03:41:56.548Z,5.03
2019-03-01T03:44:25.583Z,4.80
2019-03-01T03:46:54.601Z,5.63
2019-03-01T03:49:23.771Z,5.67
2019-03-01T03:51:52.873Z,6.43
2019-03-01T03:54:21.894Z,5.80
2019-03-01T03:56:50.856Z,6.33
2019-03-01T03:59:19.825Z,6.30
2019-03-01T04:01:48.925Z,6.97
2019-03-01T04:04:18.079Z,6.07
2019-03-01T04:06:48.900Z,5.53
2019-03-01T04:09:21.207Z,5.53
2019-03-01T04:11:50.175Z,5.93
2019-03-01T04:14:19.288Z,6.13
2019-03-01T04:16:48.260Z,6.03
2019-03-01T04:19:17.293Z,6.20
2019-03-01T04:21:46.355Z,5.73
2019-03-01T04:24:15.230Z,6.23
2019-03-01T04:26:44.234Z,5.60
2019-03-01T04:29:13.129Z,6.23
2019-03-01T04:31:42.059Z,5.10
2019-03-01T04:34:11.041Z,5.57
2019-03-01T04:36:40.024Z,6.13
2019-03-01T04:39:09.060Z,5.30
2019-03-01T04:41:38.089Z,5.70
2019-03-01T04:44:07.154Z,6.07
2019-03-01T04:46:36.513Z,5.50
2019-03-01T04:49:05.584Z,5.20
2019-03-01T04:51:40.146Z,5.63
2019-03-01T04:54:05.594Z,5.07
2019-03-01T04:56:34.597Z,5.67
2019-03-01T04:59:07.521Z,5.20
2019-03-01T05:01:36.627Z,5.50
2019-03-01T05:04:06.877Z,5.87
2019-03-01T05:06:38.065Z,5.07
2019-03-01T05:09:08.662Z,5.70
2019-03-01T05:11:37.761Z,5.20
2019-03-01T05:14:12.944Z,4.73
2019-03-01T05:16:41.845Z,4.80
2019-03-01T05:19:10.782Z,5.00
2019-03-01T05:21:39.681Z,5.30
2019-03-01T05:24:08.479Z,4.50
2019-03-01T05:26:37.448Z,4.40
2019-03-01T05:29:06.458Z,4.63
2019-03-01T05:31:35.397Z,4.40
2019-03-01T05:34:04.358Z,4.50
2019-03-01T05:36:33.164Z,3.97
2019-03-01T05:39:03.183Z,4.00
2019-03-01T05:41:32.132Z,3.70
2019-03-01T05:44:01.245Z,3.77
2019-03-01T05:46:31.008Z,3.90
2019-03-01T05:49:01.396Z,4.40
2019-03-01T05:51:30.364Z,4.40
2019-03-01T05:54:00.140Z,3.90
2019-03-01T05:56:32.192Z,4.30
2019-03-01T05:59:12.409Z,4.13
2019-03-01T06:02:05.959Z,3.83
2019-03-01T06:04:51.013Z,3.83
2019-03-01T06:07:41.355Z,4.73
2019-03-01T06:10:50.786Z,4.30
2019-03-01T06:13:58.300Z,4.10
2019-03-01T06:17:11.070Z,3.80
2019-03-01T06:20:15.607Z,3.70
2019-03-01T06:23:28.980Z,3.90
2019-03-01T06:26:16.593Z,3.83
2019-03-01T06:29:35.337Z,5.67
2019-03-01T06:32:44.151Z,4.50
2019-03-01T06:35:56.488Z,8.77
2019-03-01T06:39:36.283Z,2.60
2019-03-01T06:42:39.562Z,2.20
2019-03-01T06:45:47.190Z,3.20
2019-03-01T06:48:25.794Z,2.83
2019-03-01T06:50:58.491Z,3.00
2019-03-01T06:53:27.547Z,2.60
2019-03-01T06:56:04.085Z,2.80
2019-03-01T06:58:35.592Z,2.87
2019-03-01T07:01:08.895Z,2.90
2019-03-01T07:03:37.867Z,2.90
2019-03-01T07:06:06.936Z,3.00
2019-03-01T07:08:35.917Z,2.63
2019-03-01T07:11:04.836Z,3.73
2019-03-01T07:13:34.098Z,2.83
2019-03-01T07:16:04.130Z,3.50
2019-03-01T07:18:33.207Z,2.77
2019-03-01T07:21:02.301Z,3.37
2019-03-01T07:23:36.851Z,12.40
2019-03-01T07:26:01.957Z,4.83
2019-03-01T07:28:30.920Z,3.27
2019-03-01T07:30:59.982Z,3.20
2019-03-01T07:33:29.031Z,3.40
2019-03-01T07:35:58.001Z,3.40
2019-03-01T07:38:27.115Z,2.67
2019-03-01T07:40:56.478Z,3.13
2019-03-01T07:43:25.521Z,3.10
2019-03-01T07:45:54.594Z,3.30
2019-03-01T07:48:23.691Z,3.07
2019-03-01T07:50:55.245Z,2.97
2019-03-01T07:53:23.299Z,3.27
2019-03-01T07:55:52.185Z,3.23
2019-03-01T07:58:21.729Z,3.00
2019-03-01T08:00:53.536Z,3.20
2019-03-01T08:03:22.283Z,3.40
2019-03-01T08:05:51.276Z,3.40
2019-03-01T08:08:20.408Z,3.20
2019-03-01T08:10:49.458Z,2.90
2019-03-01T08:13:18.551Z,3.10
2019-03-01T08:15:47.567Z,3.40
2019-03-01T08:18:16.620Z,2.90
2019-03-01T08:20:45.615Z,3.00
2019-03-01T08:23:14.599Z,2.70
2019-03-01T08:25:43.596Z,9.93
2019-03-01T08:28:12.491Z,3.73
2019-03-01T08:30:42.516Z,3.03
2019-03-01T08:33:12.146Z,4.20
2019-03-01T08:35:41.034Z,4.40
2019-03-01T08:38:10.121Z,4.40
2019-03-01T08:40:39.168Z,3.90
2019-03-01T08:43:11.677Z,4.57
2019-03-01T08:45:38.734Z,10.90
2019-03-01T08:48:09.491Z,4.50
2019-03-01T08:50:38.350Z,4.03
2019-03-01T08:53:08.103Z,9.90
2019-03-01T08:55:38.916Z,4.40
2019-03-01T08:58:08.704Z,4.80
2019-03-01T09:00:38.237Z,11.40
2019-03-01T09:03:22.433Z,5.70
2019-03-01T09:05:50.855Z,7.70
2019-03-01T09:08:19.816Z,6.63
2019-03-01T09:10:48.800Z,3.60
2019-03-01T09:13:17.780Z,5.37
2019-03-01T09:15:49.449Z,4.00
2019-03-01T09:18:17.627Z,5.10
2019-03-01T09:20:49.041Z,4.13
2019-03-01T09:23:24.264Z,21.73
2019-03-01T09:25:49.953Z,7.20
2019-03-01T09:28:19.033Z,3.07
2019-03-01T09:30:47.994Z,3.20
2019-03-01T09:33:17.148Z,3.27
2019-03-01T09:36:21.261Z,3.50
2019-03-01T09:38:49.371Z,3.70
2019-03-01T09:41:18.314Z,3.53
2019-03-01T09:43:47.250Z,3.13
2019-03-01T09:46:16.302Z,4.00
2019-03-01T09:48:45.640Z,4.60
2019-03-01T09:51:16.060Z,4.00
2019-03-01T09:53:49.422Z,5.70
2019-03-01T09:56:18.312Z,6.20
2019-03-01T09:58:47.360Z,6.77
2019-03-01T10:01:17.721Z,7.10
2019-03-01T10:03:47.372Z,6.67
2019-03-01T10:06:16.426Z,7.97
2019-03-01T10:08:45.842Z,8.73
2019-03-01T10:11:14.759Z,8.00
2019-03-01T10:13:44.119Z,7.50
2019-03-01T10:16:13.208Z,8.00
2019-03-01T10:18:42.270Z,8.00
2019-03-01T10:21:11.327Z,6.97
2019-03-01T10:23:40.217Z,10.20
2019-03-01T10:26:09.383Z,9.03
2019-03-01T10:28:38.393Z,8.93
2019-03-01T10:31:11.279Z,10.77
2019-03-01T10:33:41.349Z,10.20
2019-03-01T10:36:10.466Z,9.20
2019-03-01T10:38:39.507Z,10.83
2019-03-01T10:41:08.559Z,10.13
2019-03-01T10:43:37.665Z,9.80
2019-03-01T10:46:06.792Z,10.80
2019-03-01T10:48:35.842Z,11.90
2019-03-01T10:51:04.837Z,12.23
2019-03-01T10:53:33.749Z,11.77
2019-03-01T10:56:02.684Z,13.60
2019-03-01T10:58:31.583Z,12.90
2019-03-01T11:01:00.673Z,12.27
2019-03-01T11:03:29.692Z,12.60
2019-03-01T11:05:58.706Z,9.63
2019-03-01T11:08:27.798Z,7.93
2019-03-01T11:10:56.860Z,7.37
2019-03-01T11:13:25.985Z,8.00
2019-03-01T11:15:54.901Z,8.00
2019-03-01T11:18:23.917Z,6.90
2019-03-01T11:20:52.926Z,7.37
2019-03-01T11:23:21.903Z,7.97
2019-03-01T11:25:50.804Z,7.47
2019-03-01T11:28:20.080Z,8.67
2019-03-01T11:30:48.957Z,15.40
2019-03-01T11:33:17.977Z,10.83
2019-03-01T11:35:47.083Z,12.87
2019-03-01T11:38:16.020Z,16.00
2019-03-01T11:40:45.047Z,14.80
2019-03-01T11:43:13.946Z,15.67
2019-03-01T11:45:42.956Z,19.70
2019-03-01T11:48:12.085Z,20.43
2019-03-01T11:50:41.149Z,19.73
2019-03-01T11:53:10.153Z,20.90
2019-03-01T11:55:39.290Z,21.60
2019-03-01T11:58:08.244Z,23.93
2019-03-01T12:00:37.175Z,26.87
2019-03-01T12:03:06.299Z,28.80
2019-03-01T12:05:35.570Z,28.13
2019-03-01T12:08:04.623Z,29.70
2019-03-01T12:10:33.734Z,28.60
2019-03-01T12:13:02.813Z,28.00
2019-03-01T12:15:31.897Z,28.43
2019-03-01T12:18:01.949Z,28.93
2019-03-01T12:20:38.423Z,32.13
2019-03-01T12:23:07.474Z,32.60
2019-03-01T12:25:36.805Z,34.97
2019-03-01T12:28:06.139Z,37.03
2019-03-01T12:30:35.266Z,35.97
2019-03-01T12:33:04.353Z,35.27
2019-03-01T12:35:33.381Z,38.73
2019-03-01T12:38:03.244Z,37.33
2019-03-01T12:40:32.191Z,39.40
2019-03-01T12:43:01.329Z,39.70
2019-03-01T12:45:30.746Z,37.17
2019-03-01T12:47:59.913Z,35.80
2019-03-01T12:50:29.286Z,35.87
2019-03-01T12:52:58.324Z,36.40
2019-03-01T12:55:27.481Z,41.57
2019-03-01T12:57:56.543Z,41.03
2019-03-01T13:00:27.826Z,37.57
2019-03-01T13:02:56.800Z,37.97
2019-03-01T13:05:29.185Z,40.40
2019-03-01T13:07:57.254Z,39.60
2019-03-01T13:10:27.271Z,34.97
2019-03-01T13:12:58.760Z,33.90
2019-03-01T13:15:27.532Z,36.10
2019-03-01T13:17:56.673Z,33.30
2019-03-01T13:20:25.805Z,32.67
2019-03-01T13:22:54.888Z,31.80
2019-03-01T13:25:25.779Z,28.40
2019-03-01T13:27:55.688Z,26.43
2019-03-01T13:30:24.810Z,26.00
2019-03-01T13:32:55.034Z,26.27
2019-03-01T13:35:25.953Z,24.00
2019-03-01T13:37:56.574Z,24.13
2019-03-01T13:40:25.862Z,23.83
2019-03-01T13:42:55.126Z,26.63
2019-03-01T13:45:24.258Z,25.30
2019-03-01T13:47:53.624Z,26.37
2019-03-01T13:50:22.591Z,23.70
2019-03-01T13:52:51.652Z,23.47
2019-03-01T13:55:22.405Z,22.97
2019-03-01T13:57:51.754Z,21.97
2019-03-01T14:00:20.718Z,21.53
2019-03-01T14:02:49.834Z,20.90
2019-03-01T14:05:19.042Z,23.43
2019-03-01T14:07:48.277Z,20.93
2019-03-01T14:10:18.852Z,18.47
2019-03-01T14:12:48.404Z,21.00
2019-03-01T14:15:17.771Z,22.27
2019-03-01T14:17:46.957Z,20.67
2019-03-01T14:20:20.534Z,20.40
2019-03-01T14:22:49.227Z,21.37
2019-03-01T14:25:18.454Z,21.30
2019-03-01T14:27:47.534Z,20.60
2019-03-01T14:30:18.179Z,19.90
2019-03-01T14:32:47.264Z,19.43
2019-03-01T14:35:25.827Z,21.30
2019-03-01T14:37:55.324Z,22.00
2019-03-01T14:40:24.225Z,20.17
2019-03-01T14:42:53.259Z,21.53
2019-03-01T14:45:25.478Z,20.00
2019-03-01T14:47:54.325Z,22.90
2019-03-01T14:50:23.971Z,19.77
2019-03-01T14:52:57.248Z,19.47
2019-03-01T14:55:27.122Z,20.80
2019-03-01T14:58:00.052Z,20.47
2019-03-01T15:00:49.677Z,21.17
2019-03-01T15:03:32.556Z,21.03
2019-03-01T15:06:01.834Z,21.67
2019-03-01T15:08:31.023Z,21.17
2019-03-01T15:11:04.374Z,20.97
2019-03-01T15:13:34.741Z,21.27
2019-03-01T15:16:04.948Z,19.30
2019-03-01T15:18:34.865Z,21.30
2019-03-01T15:21:04.065Z,24.73
2019-03-01T15:23:33.240Z,22.80
2019-03-01T15:26:02.579Z,19.33
2019-03-01T15:28:31.704Z,21.70
2019-03-01T15:31:00.677Z,19.83
2019-03-01T15:33:29.747Z,21.80
2019-03-01T15:35:58.909Z,20.67
2019-03-01T15:38:28.952Z,22.17
2019-03-01T15:40:58.026Z,23.67
2019-03-01T15:43:29.856Z,24.20
2019-03-01T15:45:58.273Z,20.50
2019-03-01T15:48:27.397Z,19.80
2019-03-01T15:50:58.996Z,17.60
2019-03-01T15:53:27.147Z,17.57
2019-03-01T15:55:56.113Z,20.53
2019-03-01T15:58:25.112Z,15.00
2019-03-01T16:00:54.493Z,17.67
2019-03-01T16:03:23.541Z,17.57
2019-03-01T16:05:52.623Z,16.00
2019-03-01T16:08:21.729Z,14.90
2019-03-01T16:10:50.879Z,14.20
2019-03-01T16:13:19.954Z,15.20
2019-03-01T16:15:48.920Z,17.73
2019-03-01T16:18:17.892Z,16.60
2019-03-01T16:20:47.331Z,15.80
2019-03-01T16:23:16.252Z,18.43
2019-03-01T16:25:45.190Z,17.47
2019-03-01T16:28:14.771Z,16.60
2019-03-01T16:30:43.916Z,14.60
2019-03-01T16:33:13.023Z,14.30
2019-03-01T16:35:42.343Z,17.40
2019-03-01T16:38:14.213Z,15.70
2019-03-01T16:40:43.208Z,16.07
2019-03-01T16:43:12.300Z,13.43
2019-03-01T16:45:41.421Z,18.90
2019-03-01T16:48:13.625Z,21.33
2019-03-01T16:50:43.998Z,21.17
2019-03-01T16:53:13.061Z,18.07
2019-03-01T16:55:42.269Z,18.40
2019-03-01T16:58:11.290Z,16.07
2019-03-01T17:00:40.279Z,15.80
2019-03-01T17:03:09.410Z,22.30
2019-03-01T17:05:38.941Z,21.60
2019-03-01T17:08:08.793Z,20.40
2019-03-01T17:10:37.777Z,16.87
2019-03-01T17:13:06.957Z,17.20
2019-03-01T17:15:48.129Z,17.03
2019-03-01T17:18:17.362Z,16.50
2019-03-01T17:20:47.749Z,17.80
2019-03-01T17:23:16.817Z,16.97
2019-03-01T17:25:47.608Z,16.97
2019-03-01T17:28:22.599Z,16.13
2019-03-01T17:30:50.693Z,17.37
2019-03-01T17:33:18.478Z,17.47
2019-03-01T17:35:47.699Z,17.73
2019-03-01T17:38:16.811Z,17.70
2019-03-01T17:40:45.881Z,16.60
2019-03-01T17:43:15.160Z,17.27
2019-03-01T17:45:44.771Z,18.93
2019-03-01T17:48:14.085Z,15.53
2019-03-01T17:50:44.798Z,15.47
2019-03-01T17:53:15.401Z,15.17
2019-03-01T17:55:44.582Z,18.73
2019-03-01T17:58:13.620Z,15.60
2019-03-01T18:00:42.953Z,16.57
2019-03-01T18:03:11.923Z,15.03
2019-03-01T18:05:41.540Z,35.57
2019-03-01T18:08:10.764Z,25.10
2019-03-01T18:10:39.807Z,25.27
2019-03-01T18:13:09.243Z,17.70
2019-03-01T18:15:38.266Z,17.10
2019-03-01T18:18:08.930Z,17.70
2019-03-01T18:20:38.730Z,20.60
2019-03-01T18:23:07.828Z,15.67
2019-03-01T18:25:36.987Z,18.07
2019-03-01T18:28:06.778Z,17.40
2019-03-01T18:30:35.846Z,18.60
2019-03-01T18:33:04.909Z,22.43
2019-03-01T18:35:33.985Z,14.10
2019-03-01T18:38:03.239Z,8.60
2019-03-01T18:40:32.247Z,8.10
2019-03-01T18:43:01.254Z,7.20
2019-03-01T18:45:30.450Z,12.30
2019-03-01T18:47:59.359Z,10.80
2019-03-01T18:50:31.333Z,7.57
2019-03-01T18:53:00.310Z,13.50
2019-03-01T18:55:29.288Z,10.60
2019-03-01T18:57:58.289Z,16.60
2019-03-01T19:00:32.586Z,9.20
2019-03-01T19:03:04.411Z,8.57
2019-03-01T19:05:36.649Z,9.00
2019-03-01T19:08:05.869Z,8.73
2019-03-01T19:10:35.377Z,10.20
2019-03-01T19:13:04.426Z,11.10
2019-03-01T19:15:33.453Z,13.20
2019-03-01T19:18:02.390Z,11.20
2019-03-01T19:20:31.946Z,10.60
2019-03-01T19:23:00.974Z,15.67
2019-03-01T19:25:29.967Z,13.30
2019-03-01T19:27:59.078Z,27.30
2019-03-01T19:30:28.176Z,27.70
2019-03-01T19:32:58.883Z,16.57
2019-03-01T19:35:29.734Z,23.70
2019-03-01T19:37:58.480Z,21.13
2019-03-01T19:40:27.566Z,24.37
2019-03-01T19:42:57.391Z,13.20
2019-03-01T19:45:26.632Z,11.83
2019-03-01T19:48:01.309Z,11.70
2019-03-01T19:50:26.666Z,14.03
2019-03-01T19:52:55.810Z,17.70
2019-03-01T19:55:24.908Z,13.43
2019-03-01T19:57:54.022Z,13.73
2019-03-01T20:00:23.683Z,16.00
2019-03-01T20:02:52.706Z,15.03
2019-03-01T20:05:23.475Z,13.37
2019-03-01T20:07:54.666Z,13.40
2019-03-01T20:10:23.565Z,14.87
2019-03-01T20:12:52.493Z,13.83
2019-03-01T20:15:22.652Z,11.80
2019-03-01T20:17:51.658Z,13.10
2019-03-01T20:20:21.230Z,13.00
2019-03-01T20:22:50.526Z,13.37
2019-03-01T20:25:21.005Z,12.70
2019-03-01T20:27:50.058Z,14.30
2019-03-01T20:30:20.926Z,28.80
2019-03-01T20:32:51.076Z,22.10
2019-03-01T20:35:21.355Z,25.00
2019-03-01T20:37:50.752Z,22.57
2019-03-01T20:40:22.740Z,24.40
2019-03-01T20:42:50.784Z,15.93
2019-03-01T20:45:25.968Z,16.97
2019-03-01T20:47:55.398Z,27.80
2019-03-01T20:50:24.521Z,17.90
2019-03-01T20:52:53.604Z,16.70
2019-03-01T20:55:23.973Z,17.23
2019-03-01T20:57:53.159Z,15.30
2019-03-01T21:00:22.604Z,21.17
2019-03-01T21:02:53.205Z,27.13
2019-03-01T21:05:25.099Z,18.17
2019-03-01T21:07:53.960Z,13.00
2019-03-01T21:10:24.004Z,13.67
2019-03-01T21:12:53.119Z,14.40
2019-03-01T21:15:22.280Z,13.03
2019-03-01T21:17:52.844Z,14.47
2019-03-01T21:20:22.112Z,13.70
2019-03-01T21:22:52.356Z,15.37
2019-03-01T21:25:21.380Z,19.80
2019-03-01T21:27:50.370Z,18.40
2019-03-01T21:30:24.955Z,34.60
2019-03-01T21:32:54.353Z,28.93
2019-03-01T21:35:23.409Z,20.43
2019-03-01T21:37:52.598Z,15.93
2019-03-01T21:40:21.644Z,14.60
2019-03-01T21:42:52.797Z,14.43
2019-03-01T21:45:22.413Z,14.67
2019-03-01T21:47:51.678Z,14.30
2019-03-01T21:50:22.410Z,14.37
2019-03-01T21:52:52.254Z,16.40
2019-03-01T21:55:24.845Z,17.83
2019-03-01T21:57:56.089Z,18.40
2019-03-01T22:00:29.641Z,19.77
2019-03-01T22:02:56.271Z,19.10
2019-03-01T22:05:25.287Z,18.70
2019-03-01T22:07:54.382Z,15.23
2019-03-01T22:10:23.488Z,16.37
2019-03-01T22:12:52.483Z,13.90
2019-03-01T22:15:25.534Z,14.73
2019-03-01T22:17:53.704Z,15.43
2019-03-01T22:20:22.892Z,16.10
2019-03-01T22:22:51.923Z,20.07
2019-03-01T22:25:20.932Z,16.13
2019-03-01T22:27:49.937Z,18.80
2019-03-01T22:30:24.834Z,20.90
2019-03-01T22:32:53.800Z,14.97
2019-03-01T22:35:22.900Z,20.00
2019-03-01T22:37:51.844Z,15.47
2019-03-01T22:40:23.985Z,15.97
2019-03-01T22:42:51.787Z,14.57
2019-03-01T22:45:21.073Z,13.93
2019-03-01T22:47:50.071Z,13.23
2019-03-01T22:50:19.069Z,15.00
2019-03-01T22:52:48.385Z,14.63
2019-03-01T22:55:17.448Z,15.20
2019-03-01T22:57:46.417Z,14.90
2019-03-01T23:01:16.667Z,13.77
2019-03-01T23:03:51.553Z,14.53
2019-03-01T23:06:21.422Z,14.80
2019-03-01T23:08:50.514Z,14.80
2019-03-01T23:11:19.565Z,14.30
2019-03-01T23:13:48.659Z,13.40
2019-03-01T23:16:18.830Z,15.30
2019-03-01T23:18:56.371Z,14.60
2019-03-01T23:21:19.329Z,15.47
2019-03-01T23:23:48.385Z,14.53
2019-03-01T23:26:18.589Z,13.80
2019-03-01T23:28:48.276Z,15.63
2019-03-01T23:31:17.377Z,14.20
2019-03-01T23:33:46.472Z,14.00
2019-03-01T23:36:15.592Z,13.63
2019-03-01T23:38:46.637Z,14.67
2019-03-01T23:41:15.465Z,14.10
2019-03-01T23:43:44.540Z,14.67
2019-03-01T23:46:13.556Z,15.07
2019-03-01T23:48:45.516Z,15.57
2019-03-01T23:51:13.293Z,14.53
2019-03-01T23:53:42.699Z,14.43
2019-03-01T23:56:11.799Z,12.73
2019-03-01T23:58:40.924Z,14.73
